Leonardtown, MD

2:56 AM EDT on September 22, 2017 (GMT -0400)
Leonardtown

Weather History for K2W6 - February, 2013

Change the Weather History Date:

Saturday, February 9, 2013

  Actual Average (KNHK) Record (KNHK)
Temperature  
Mean Temperature 34 °F -  
Max Temperature 41 °F 38 °F 52 °F (2015)
Min Temperature 26 °F 23 °F 19 °F (2014)
Degree Days  
Heating Degree Days 32    
Moisture  
Dew Point 17 °F    
Average Humidity 50    
Maximum Humidity 69    
Minimum Humidity 33    
Precipitation  
Precipitation 0.00 in - - ()
Sea Level Pressure  
Sea Level Pressure 30.19 in    
Wind  
Wind Speed 12 mph (WNW)    
Max Wind Speed 24 mph    
Max Gust Speed 37 mph    
Visibility 10 miles    
Events      
Averages and records for this station are not official NWS values.
T = Trace of Precipitation, MM = Missing Value Source: NWS Daily Summary

Daily Weather History Graph

Daily Weather History Graph

Search for Another Location

Airport or City:

Trip Planner

Search our weather history database for the weather conditions in past years. The results will help you decide how hot, cold, wet, or windy it might be!

Date:

Astronomy

Feb. 09, 2013 Rise Set
Actual Time 7:03 AM EST 5:38 PM EST
Civil Twilight 6:35 AM EST 6:05 PM EST
Nautical Twilight 6:04 AM EST 6:36 PM EST
Astronomical Twilight 5:33 AM EST 7:07 PM EST
Moon 6:13 AM EST (2/9) 5:17 PM EST (2/9)
Length of Visible Light 11h 29m
Length of Day
10h 34m
Waning Crescent, 0% of the Moon is Illuminated
Feb 9
Waning Crescent
Feb 10
New
Feb 17
First Quarter
Feb 25
Full
Mar 4
Last Quarter

Hourly Weather History & Observations

Time (EST) Temp. Windchill Dew Point Humidity Pressure Visibility Wind Dir Wind Speed Gust Speed Precip Events Conditions
12:15 AM 35.6 °F 25.2 °F 21.2 °F 56% 29.91 in 10.0 mi WNW 18.4 mph 26.5 mph N/A   Mostly Cloudy
12:35 AM 35.6 °F 26.6 °F 21.2 °F 56% 29.92 in 10.0 mi WNW 13.8 mph 31.1 mph N/A   Scattered Clouds
12:55 AM 35.6 °F 27.5 °F 21.2 °F 56% 29.92 in 10.0 mi WNW 11.5 mph 23.0 mph N/A   Mostly Cloudy
1:15 AM 35.6 °F 25.5 °F 21.2 °F 56% 29.93 in 10.0 mi WNW 17.3 mph 28.8 mph N/A   Mostly Cloudy
1:35 AM 35.6 °F 24.8 °F 21.2 °F 56% 29.92 in 10.0 mi WNW 19.6 mph 29.9 mph N/A   Mostly Cloudy
1:55 AM 33.8 °F 24.3 °F 21.2 °F 60% 29.93 in 10.0 mi WNW 13.8 mph 25.3 mph N/A   Mostly Cloudy
2:15 AM 33.8 °F 22.5 °F 21.2 °F 60% 29.94 in 10.0 mi WNW 19.6 mph 28.8 mph N/A   Mostly Cloudy
2:35 AM 33.8 °F 23.9 °F 21.2 °F 60% 29.95 in 10.0 mi WNW 15.0 mph 32.2 mph N/A   Mostly Cloudy
2:55 AM 33.8 °F 21.3 °F 19.4 °F 56% 29.96 in 10.0 mi WNW 24.2 mph 33.4 mph N/A   Scattered Clouds
3:15 AM 33.8 °F 24.8 °F 19.4 °F 56% 29.97 in 10.0 mi WNW 12.7 mph 36.8 mph N/A   Mostly Cloudy
3:55 AM 33.8 °F 25.8 °F 21.2 °F 60% 29.99 in 10.0 mi WNW 10.4 mph 21.9 mph N/A   Overcast
4:35 AM 33.8 °F 25.3 °F 21.2 °F 60% 30.02 in 10.0 mi WNW 11.5 mph 27.6 mph N/A   Overcast
4:55 AM 33.8 °F 25.8 °F 21.2 °F 60% 30.03 in 10.0 mi NW 10.4 mph 26.5 mph N/A   Overcast
5:15 AM 32.0 °F 23.6 °F 21.2 °F 64% 30.04 in 10.0 mi WNW 10.4 mph 24.2 mph N/A   Overcast
5:35 AM 32.0 °F 24.2 °F 19.4 °F 60% 30.05 in 10.0 mi NW 9.2 mph 25.3 mph N/A   Overcast
5:55 AM 32.0 °F 22.1 °F 17.6 °F 55% 30.06 in 10.0 mi NW 13.8 mph 29.9 mph N/A   Scattered Clouds
6:16 AM 32.0 °F 21.6 °F 17.6 °F 55% 30.08 in 10.0 mi NW 15.0 mph 24.2 mph N/A   Clear
6:36 AM 32.0 °F 22.5 °F 17.6 °F 55% 30.09 in 10.0 mi NW 12.7 mph 26.5 mph N/A   Clear
6:56 AM 32.0 °F 22.1 °F 17.6 °F 55% 30.10 in 10.0 mi NW 13.8 mph 26.5 mph N/A   Clear
7:16 AM 32.0 °F 24.2 °F 17.6 °F 55% 30.11 in 10.0 mi NW 9.2 mph 18.4 mph N/A   Clear
7:36 AM 32.0 °F 23.6 °F 17.6 °F 55% 30.13 in 10.0 mi NNW 10.4 mph 19.6 mph N/A   Clear
7:56 AM 32.0 °F 24.2 °F 17.6 °F 55% 30.14 in 10.0 mi NW 9.2 mph 23.0 mph N/A   Clear
8:16 AM 32.0 °F 24.2 °F 17.6 °F 55% 30.15 in 10.0 mi NW 9.2 mph 17.3 mph N/A   Clear
8:36 AM 32.0 °F 23.0 °F 17.6 °F 55% 30.16 in 10.0 mi WNW 11.5 mph 24.2 mph N/A   Clear
8:56 AM 32.0 °F 22.1 °F 17.6 °F 55% 30.17 in 10.0 mi WNW 13.8 mph 25.3 mph N/A   Clear
9:16 AM 32.0 °F 23.6 °F 17.6 °F 55% 30.18 in 10.0 mi NW 10.4 mph 24.2 mph N/A   Clear
9:36 AM 32.0 °F 23.6 °F 17.6 °F 55% 30.19 in 10.0 mi NW 10.4 mph 21.9 mph N/A   Clear
9:56 AM 33.8 °F 25.8 °F 17.6 °F 52% 30.19 in 10.0 mi WNW 10.4 mph 19.6 mph N/A   Clear
10:16 AM 33.8 °F 24.8 °F 17.6 °F 52% 30.19 in 10.0 mi NW 12.7 mph 23.0 mph N/A   Clear
10:36 AM 33.8 °F 25.8 °F 17.6 °F 52% 30.20 in 10.0 mi WNW 10.4 mph 23.0 mph N/A   Clear
10:56 AM 33.8 °F 25.3 °F 17.6 °F 52% 30.21 in 10.0 mi NW 11.5 mph 26.5 mph N/A   Clear
11:16 AM 35.6 °F 28.6 °F 17.6 °F 48% 30.21 in 10.0 mi NW 9.2 mph 20.7 mph N/A   Clear
11:36 AM 35.6 °F 27.1 °F 17.6 °F 48% 30.22 in 10.0 mi WNW 12.7 mph 28.8 mph N/A   Clear
11:56 AM 35.6 °F 25.9 °F 17.6 °F 48% 30.23 in 10.0 mi WNW 16.1 mph 23.0 mph N/A   Clear
12:16 PM 35.6 °F 28.0 °F 17.6 °F 48% 30.22 in 10.0 mi NW 10.4 mph 25.3 mph N/A   Clear
12:36 PM 37.4 °F 29.3 °F 17.6 °F 45% 30.22 in 10.0 mi WNW 12.7 mph 19.6 mph N/A   Clear
12:56 PM 37.4 °F 28.9 °F 17.6 °F 45% 30.22 in 10.0 mi WNW 13.8 mph 23.0 mph N/A   Clear
1:16 PM 37.4 °F 28.9 °F 17.6 °F 45% 30.23 in 10.0 mi WNW 13.8 mph 21.9 mph N/A   Clear
1:36 PM 39.2 °F 31.6 °F 17.6 °F 42% 30.22 in 10.0 mi WNW 12.7 mph 18.4 mph N/A   Clear
1:56 PM 39.2 °F 32.5 °F 15.8 °F 39% 30.23 in 10.0 mi NW 10.4 mph 19.6 mph N/A   Clear
2:16 PM 39.2 °F 32.0 °F 17.6 °F 42% 30.23 in 10.0 mi WNW 11.5 mph 20.7 mph N/A   Clear
2:37 PM 41.0 °F 33.5 °F 17.6 °F 39% 30.24 in 10.0 mi West 13.8 mph 17.3 mph N/A   Clear
2:57 PM 41.0 °F 35.2 °F 15.8 °F 36% 30.25 in 10.0 mi NW 9.2 mph - N/A   Clear
3:17 PM 41.0 °F 35.8 °F 15.8 °F 36% 30.26 in 10.0 mi WNW 8.1 mph - N/A   Clear
3:37 PM 41.0 °F 35.2 °F 15.8 °F 36% 30.26 in 10.0 mi West 9.2 mph 19.6 mph N/A   Clear
3:57 PM 41.0 °F 37.1 °F 15.8 °F 36% 30.27 in 10.0 mi NW 5.8 mph - N/A   Clear
4:17 PM 41.0 °F 38.0 °F 14.0 °F 33% 30.27 in 10.0 mi NW 4.6 mph - N/A   Clear
4:37 PM 41.0 °F 35.8 °F 14.0 °F 33% 30.28 in 10.0 mi NW 8.1 mph - N/A   Clear
4:57 PM 39.2 °F 34.2 °F 14.0 °F 36% 30.29 in 10.0 mi WNW 6.9 mph - N/A   Clear
5:17 PM 39.2 °F 35.9 °F 14.0 °F 36% 30.29 in 10.0 mi WNW 4.6 mph - N/A   Clear
5:37 PM 37.4 °F 32.1 °F 14.0 °F 38% 30.30 in 10.0 mi WNW 6.9 mph - N/A   Clear
5:57 PM 37.4 °F 33.8 °F 14.0 °F 38% 30.30 in 10.0 mi NW 4.6 mph - N/A   Clear
6:17 PM 35.6 °F - 14.0 °F 41% 30.32 in 10.0 mi Calm Calm - N/A   Clear
6:37 PM 35.6 °F 30.7 °F 14.0 °F 41% 30.33 in 10.0 mi WNW 5.8 mph - N/A   Clear
6:57 PM 35.6 °F 31.7 °F 14.0 °F 41% 30.33 in 10.0 mi WNW 4.6 mph - N/A   Clear
7:17 PM 35.6 °F 31.7 °F 14.0 °F 41% 30.34 in 10.0 mi NW 4.6 mph - N/A   Clear
7:37 PM 35.6 °F - 14.0 °F 41% 30.35 in 10.0 mi Calm Calm - N/A   Clear
7:57 PM 35.6 °F - 14.0 °F 41% 30.35 in 10.0 mi Calm Calm - N/A   Clear
8:17 PM 33.8 °F - 14.0 °F 44% 30.36 in 10.0 mi Calm Calm - N/A   Clear
8:57 PM 33.8 °F - 14.0 °F 44% 30.36 in 10.0 mi Calm Calm - N/A   Clear
9:17 PM 32.0 °F - 14.0 °F 48% 30.37 in 10.0 mi Calm Calm - N/A   Clear
9:37 PM 30.2 °F 26.7 °F 17.6 °F 60% 30.37 in 10.0 mi WNW 3.5 mph - N/A   Clear
9:57 PM 30.2 °F - 15.8 °F 55% 30.37 in 10.0 mi Calm Calm - N/A   Clear
10:17 PM 30.2 °F - 17.6 °F 60% 30.38 in 10.0 mi Calm Calm - N/A   Clear
10:37 PM 30.2 °F - 17.6 °F 60% 30.38 in 10.0 mi Calm Calm - N/A   Clear
10:57 PM 28.4 °F 24.6 °F 15.8 °F 59% 30.39 in 10.0 mi West 3.5 mph - N/A   Clear
11:17 PM 26.6 °F - 17.6 °F 69% 30.39 in 10.0 mi Calm Calm - N/A   Clear
11:38 PM 28.4 °F - 17.6 °F 64% 30.39 in 10.0 mi Calm Calm - N/A   Clear
11:58 PM 28.4 °F 24.6 °F 17.6 °F 64% 30.40 in 10.0 mi WNW 3.5 mph - N/A   Clear